Time;durP1;ratioP1;P1;durP2;ratioP2;P2;SDS_P1;SDS_P2;PMS_P1;PMS_P2;Temp;Humidity;BMP_temperature;BMP_pressure;BME280_temperature;BME280_humidity;BME280_pressure;Samples;Min_cycle;Max_cycle;Signal;HPM_P1;HPM_P2
2022/10/30 00:00:40;;;;;;;2.33;1.80;;;15.90;99.90;;;;;;4899337;29;20100;-80
2022/10/30 00:03:09;;;;;;;7.32;3.00;;;15.90;99.90;;;;;;4899372;29;20016;-79
2022/10/30 00:05:34;;;;;;;4.25;2.28;;;15.90;99.90;;;;;;4899346;29;20171;-80
2022/10/30 00:08:00;;;;;;;5.55;2.47;;;15.90;99.90;;;;;;4899470;29;20063;-79
2022/10/30 00:10:26;;;;;;;3.60;2.58;;;15.80;99.90;;;;;;4882281;29;20024;-79
2022/10/30 00:12:52;;;;;;;4.60;2.33;;;15.80;99.90;;;;;;4890259;29;20036;-80
2022/10/30 00:15:18;;;;;;;6.05;2.83;;;15.80;99.90;;;;;;4898125;29;20041;-79
2022/10/30 00:17:43;;;;;;;4.03;2.40;;;15.80;99.90;;;;;;4900473;29;20024;-80
2022/10/30 00:20:09;;;;;;;4.88;2.33;;;15.80;99.90;;;;;;4910176;29;20080;-79
2022/10/30 00:22:35;;;;;;;9.60;2.20;;;15.80;99.90;;;;;;4915279;29;20028;-80
2022/10/30 00:25:02;;;;;;;8.10;2.63;;;15.80;99.90;;;;;;4912419;29;20029;-79
2022/10/30 00:27:28;;;;;;;5.40;2.22;;;15.70;99.90;;;;;;4915089;29;20028;-80
2022/10/30 00:29:54;;;;;;;5.88;2.25;;;15.80;99.90;;;;;;4896206;29;20028;-79
2022/10/30 00:32:19;;;;;;;2.63;2.30;;;15.70;99.90;;;;;;4895485;29;20498;-79
2022/10/30 00:34:45;;;;;;;4.38;2.40;;;15.70;99.90;;;;;;4894330;29;20111;-80
2022/10/30 00:37:10;;;;;;;6.82;1.95;;;15.70;99.90;;;;;;4894830;29;20025;-80
2022/10/30 00:39:36;;;;;;;3.33;1.77;;;15.70;99.90;;;;;;4907394;29;20488;-79
2022/10/30 00:42:02;;;;;;;5.93;2.45;;;15.70;99.90;;;;;;4897684;29;20024;-79
2022/10/30 00:44:44;;;;;;;5.45;2.38;;;15.70;99.90;;;;;;4906819;29;20060;-79
2022/10/30 00:47:24;;;;;;;2.55;2.03;;;15.70;99.90;;;;;;4913476;29;20076;-79
2022/10/30 00:49:52;;;;;;;3.83;2.83;;;15.70;99.90;;;;;;4896033;29;20530;-80
2022/10/30 00:52:21;;;;;;;5.72;2.22;;;15.60;99.90;;;;;;4908590;29;20391;-80
2022/10/30 00:54:47;;;;;;;8.68;2.55;;;15.60;99.90;;;;;;4893992;29;20029;-80
2022/10/30 00:57:13;;;;;;;3.88;2.13;;;15.60;99.90;;;;;;4895303;29;20480;-79
2022/10/30 00:59:42;;;;;;;6.85;2.83;;;15.60;99.90;;;;;;4892756;29;20032;-79
2022/10/30 01:02:08;;;;;;;2.75;1.73;;;15.50;99.90;;;;;;4895641;29;20396;-80
2022/10/30 01:04:36;;;;;;;4.30;2.28;;;15.50;99.90;;;;;;4912264;29;20044;-80
2022/10/30 01:07:09;;;;;;;6.18;2.58;;;15.50;99.90;;;;;;4896699;29;20067;-80
2022/10/30 01:09:37;;;;;;;5.38;2.15;;;15.50;99.90;;;;;;4895398;29;20036;-80
2022/10/30 01:12:02;;;;;;;4.32;2.33;;;15.50;99.90;;;;;;4913733;29;20387;-80
2022/10/30 01:14:29;;;;;;;4.35;2.53;;;15.50;99.90;;;;;;4911847;29;20039;-80
2022/10/30 01:17:25;;;;;;;5.88;2.13;;;15.50;99.90;;;;;;4911942;29;20028;-80
2022/10/30 01:19:58;;;;;;;13.00;2.33;;;15.50;99.90;;;;;;4913190;29;20028;-80
2022/10/30 01:22:52;;;;;;;2.65;1.80;;;15.50;99.90;;;;;;4912859;29;20028;-80
2022/10/30 01:25:42;;;;;;;7.50;2.33;;;15.50;99.90;;;;;;4913402;29;20027;-80
2022/10/30 01:28:38;;;;;;;8.27;2.53;;;15.40;99.90;;;;;;4910647;29;20020;-80
2022/10/30 01:31:35;;;;;;;3.60;2.40;;;15.40;99.90;;;;;;4914152;29;20088;-80
2022/10/30 01:34:11;;;;;;;7.00;2.38;;;15.40;99.90;;;;;;4909801;29;20029;-80
2022/10/30 01:36:56;;;;;;;7.75;1.95;;;15.30;99.90;;;;;;4895903;29;20031;-80
2022/10/30 01:39:25;;;;;;;4.20;2.10;;;15.30;99.90;;;;;;4912593;29;20399;-80
2022/10/30 01:41:52;;;;;;;6.85;2.10;;;15.20;99.90;;;;;;4911920;29;20067;-79
2022/10/30 01:44:29;;;;;;;9.00;2.70;;;15.20;99.90;;;;;;4894564;29;20036;-80
2022/10/30 01:47:10;;;;;;;4.63;2.17;;;15.20;99.90;;;;;;4912304;29;20040;-80
2022/10/30 01:49:48;;;;;;;6.00;2.30;;;15.20;99.90;;;;;;4912354;29;20036;-80
2022/10/30 01:52:38;;;;;;;8.50;2.15;;;15.20;99.90;;;;;;4912097;29;20441;-80
2022/10/30 01:55:08;;;;;;;7.40;2.65;;;15.20;99.90;;;;;;4895197;29;20111;-80
2022/10/30 01:58:09;;;;;;;4.38;2.40;;;15.20;99.90;;;;;;4911047;29;20025;-80
2022/10/30 02:00:37;;;;;;;5.78;2.65;;;15.10;99.90;;;;;;4818839;29;20033;-80
2022/10/30 02:03:04;;;;;;;5.60;1.98;;;15.10;99.90;;;;;;4881714;29;20044;-80
2022/10/30 02:05:37;;;;;;;7.70;2.60;;;15.10;99.90;;;;;;4895634;29;20044;-80
2022/10/30 02:08:03;;;;;;;3.88;2.53;;;15.10;99.90;;;;;;4910770;29;20032;-80
2022/10/30 02:10:30;;;;;;;10.50;2.55;;;15.10;99.90;;;;;;4913530;29;20394;-79
2022/10/30 02:12:56;;;;;;;4.50;2.78;;;15.00;99.90;;;;;;4910490;29;20037;-80
2022/10/30 02:15:22;;;;;;;7.97;2.72;;;15.00;99.90;;;;;;4912943;29;20393;-80
2022/10/30 02:17:48;;;;;;;3.45;2.35;;;15.00;99.90;;;;;;4908312;29;20083;-79
2022/10/30 02:20:20;;;;;;;6.57;3.70;;;15.00;99.90;;;;;;4895087;29;20029;-80
2022/10/30 02:22:49;;;;;;;8.85;2.85;;;15.00;99.90;;;;;;4892833;29;20028;-79
2022/10/30 02:25:15;;;;;;;6.88;2.42;;;14.90;99.90;;;;;;4894509;29;20064;-80
2022/10/30 02:27:41;;;;;;;6.47;2.00;;;14.90;99.90;;;;;;4891101;29;20055;-80
2022/10/30 02:30:08;;;;;;;6.28;2.42;;;15.00;99.90;;;;;;4894978;29;20454;-80
2022/10/30 02:32:34;;;;;;;6.03;2.40;;;15.00;99.90;;;;;;4899590;29;20044;-80
2022/10/30 02:35:00;;;;;;;4.20;2.22;;;14.90;99.90;;;;;;4901857;29;20027;-80
2022/10/30 02:37:26;;;;;;;6.55;2.33;;;14.90;99.90;;;;;;4894278;29;20028;-79
2022/10/30 02:39:52;;;;;;;6.25;2.22;;;14.90;99.90;;;;;;4895749;29;20032;-80
2022/10/30 02:42:17;;;;;;;5.88;3.15;;;14.90;99.90;;;;;;4909399;29;20032;-80
2022/10/30 02:44:43;;;;;;;10.00;3.10;;;14.90;99.90;;;;;;4913066;29;20048;-80
2022/10/30 02:47:09;;;;;;;4.65;2.65;;;14.90;99.90;;;;;;4892003;29;20032;-80
2022/10/30 02:49:35;;;;;;;8.35;2.38;;;14.90;99.90;;;;;;4912486;29;20086;-80
2022/10/30 02:52:00;;;;;;;9.60;2.30;;;14.90;99.90;;;;;;4910429;29;20028;-80
2022/10/30 02:54:26;;;;;;;5.03;2.13;;;14.90;99.90;;;;;;4911986;29;20186;-80
2022/10/30 02:56:52;;;;;;;7.35;2.05;;;14.90;99.90;;;;;;4893356;29;20025;-80
2022/10/30 02:59:19;;;;;;;6.18;2.20;;;14.80;99.90;;;;;;4912412;29;20479;-80
2022/10/30 03:01:45;;;;;;;5.63;2.33;;;14.90;99.90;;;;;;4909840;29;20076;-80
2022/10/30 03:04:10;;;;;;;5.85;2.42;;;14.80;99.90;;;;;;4916480;29;20047;-80
2022/10/30 03:06:36;;;;;;;4.90;2.72;;;14.80;99.90;;;;;;4913308;29;20197;-80
2022/10/30 03:09:03;;;;;;;8.18;2.45;;;14.80;99.90;;;;;;4899304;29;20044;-80
2022/10/30 03:11:28;;;;;;;10.57;2.97;;;14.80;99.90;;;;;;4903103;29;20051;-80
2022/10/30 03:13:54;;;;;;;4.03;2.50;;;14.80;99.90;;;;;;4911453;29;20037;-80
2022/10/30 03:16:23;;;;;;;5.55;2.80;;;14.80;99.90;;;;;;4904949;29;20064;-80
2022/10/30 03:18:50;;;;;;;7.47;2.30;;;14.90;99.90;;;;;;4898636;29;20119;-80
2022/10/30 03:21:18;;;;;;;7.07;2.42;;;14.90;99.90;;;;;;4917554;29;20517;-80
2022/10/30 03:23:45;;;;;;;4.80;2.22;;;14.90;99.90;;;;;;4918517;29;20419;-80
2022/10/30 03:26:11;;;;;;;6.40;2.15;;;14.80;99.90;;;;;;4918675;29;20020;-80
2022/10/30 03:28:36;;;;;;;5.82;2.10;;;14.90;99.90;;;;;;4918909;29;20509;-80
2022/10/30 03:31:08;;;;;;;7.32;3.05;;;14.90;99.90;;;;;;4893921;29;20069;-80
2022/10/30 03:33:35;;;;;;;4.93;2.83;;;14.80;99.90;;;;;;4899864;29;20043;-80
2022/10/30 03:36:02;;;;;;;3.85;2.42;;;14.90;99.90;;;;;;4889024;29;20058;-80
2022/10/30 03:38:28;;;;;;;5.47;2.40;;;14.80;99.90;;;;;;4910347;29;20032;-80
2022/10/30 03:40:54;;;;;;;6.85;2.67;;;14.80;99.90;;;;;;4918387;29;20043;-80
2022/10/30 03:43:19;;;;;;;6.55;2.00;;;14.80;99.90;;;;;;4901407;29;20035;-80
2022/10/30 03:45:47;;;;;;;7.57;2.22;;;14.90;99.90;;;;;;4899534;29;21404;-79
2022/10/30 03:48:13;;;;;;;4.47;1.90;;;14.80;99.90;;;;;;4917236;29;20102;-80
2022/10/30 03:50:38;;;;;;;90.22;53.70;;;14.80;99.90;;;;;;4929511;29;20114;-80
2022/10/30 03:53:04;;;;;;;89.68;61.60;;;14.90;99.90;;;;;;4921249;29;20107;-80
2022/10/30 03:55:30;;;;;;;13.80;7.57;;;14.90;99.90;;;;;;4918065;29;20024;-79
2022/10/30 03:57:55;;;;;;;5.93;4.13;;;15.00;99.90;;;;;;4918321;29;20056;-80
2022/10/30 04:00:21;;;;;;;4.60;2.83;;;14.90;99.90;;;;;;4918255;29;20134;-79
2022/10/30 04:02:48;;;;;;;4.60;2.38;;;14.90;99.90;;;;;;4919057;29;20070;-80
2022/10/30 04:05:16;;;;;;;3.65;2.00;;;14.90;99.90;;;;;;4918597;29;20426;-80
2022/10/30 04:07:42;;;;;;;7.07;1.83;;;14.90;99.90;;;;;;4901402;29;20068;-79
2022/10/30 04:10:09;;;;;;;6.32;2.55;;;14.90;99.90;;;;;;4918357;29;20116;-80
2022/10/30 04:12:35;;;;;;;5.60;2.38;;;14.90;99.90;;;;;;4917125;29;20032;-80
2022/10/30 04:15:01;;;;;;;6.05;2.35;;;14.80;99.90;;;;;;4918047;29;20371;-79
2022/10/30 04:17:26;;;;;;;4.13;2.33;;;14.90;99.90;;;;;;4918570;29;20096;-79
2022/10/30 04:19:52;;;;;;;6.50;2.33;;;14.80;99.90;;;;;;4918525;29;20058;-80
2022/10/30 04:22:18;;;;;;;4.88;2.25;;;14.80;99.90;;;;;;4925983;29;20037;-80
2022/10/30 04:24:44;;;;;;;6.50;2.33;;;14.80;99.90;;;;;;4904929;29;21157;-79
2022/10/30 04:27:12;;;;;;;3.72;2.28;;;14.70;99.90;;;;;;4918930;29;20395;-79
2022/10/30 04:29:38;;;;;;;3.05;2.05;;;14.70;99.90;;;;;;4901471;29;20028;-80
2022/10/30 04:32:04;;;;;;;4.47;2.38;;;14.70;99.90;;;;;;4918319;29;20502;-80
2022/10/30 04:34:29;;;;;;;7.07;2.47;;;14.70;99.90;;;;;;4918475;29;20059;-80
2022/10/30 04:36:55;;;;;;;6.43;2.00;;;14.70;99.90;;;;;;4918473;29;20031;-80
2022/10/30 04:39:21;;;;;;;4.85;2.00;;;14.70;99.90;;;;;;4918128;29;20016;-80
2022/10/30 04:41:46;;;;;;;3.15;1.75;;;14.70;99.90;;;;;;4918260;29;20020;-80
2022/10/30 04:44:12;;;;;;;6.30;1.90;;;14.70;99.90;;;;;;4917804;29;20383;-77
2022/10/30 04:46:38;;;;;;;5.65;1.77;;;14.80;99.90;;;;;;4900013;29;20032;-77
2022/10/30 04:49:03;;;;;;;4.45;1.52;;;14.70;99.90;;;;;;4899827;29;20028;-77
2022/10/30 04:51:29;;;;;;;6.32;2.33;;;14.70;99.90;;;;;;4916482;29;20036;-77
2022/10/30 04:53:55;;;;;;;3.83;1.73;;;14.70;99.90;;;;;;4916266;29;20025;-77
2022/10/30 04:56:20;;;;;;;6.05;2.10;;;14.70;99.90;;;;;;4914915;29;20028;-77
2022/10/30 04:58:46;;;;;;;2.67;2.10;;;14.70;99.90;;;;;;4914935;29;20073;-77
2022/10/30 05:01:12;;;;;;;3.97;2.03;;;14.70;99.90;;;;;;4914693;29;20119;-77
2022/10/30 05:03:37;;;;;;;2.75;1.60;;;14.70;99.90;;;;;;4914636;29;20039;-76
2022/10/30 05:06:06;;;;;;;3.63;1.90;;;14.70;99.90;;;;;;4914412;29;20107;-77
2022/10/30 05:08:32;;;;;;;8.23;1.88;;;14.70;99.90;;;;;;4897846;29;20028;-77
2022/10/30 05:13:47;;;;;;;4.65;2.35;;;14.70;99.90;;;;;;4916938;29;20083;-77
2022/10/30 05:16:13;;;;;;;6.47;1.92;;;14.70;99.90;;;;;;4916622;29;20020;-77
2022/10/30 05:18:39;;;;;;;3.75;2.00;;;14.60;99.90;;;;;;4916301;29;20099;-77
2022/10/30 05:21:05;;;;;;;7.25;2.13;;;14.60;99.90;;;;;;4916059;29;20028;-77
2022/10/30 05:23:30;;;;;;;6.97;2.28;;;14.60;99.90;;;;;;4912089;29;20035;-77
2022/10/30 05:25:58;;;;;;;5.85;2.05;;;14.60;99.90;;;;;;4880443;29;20032;-77
2022/10/30 05:28:24;;;;;;;4.88;2.00;;;14.60;99.90;;;;;;4913330;29;20115;-77
2022/10/30 05:30:52;;;;;;;5.88;2.13;;;14.60;99.90;;;;;;4898897;29;20115;-77
2022/10/30 05:33:18;;;;;;;5.38;1.85;;;14.60;99.90;;;;;;4899042;29;20020;-77
2022/10/30 05:35:44;;;;;;;5.18;2.33;;;14.60;99.90;;;;;;4915964;29;20020;-77
2022/10/30 05:38:10;;;;;;;4.32;2.30;;;14.60;99.90;;;;;;4899016;29;20039;-77
2022/10/30 05:40:36;;;;;;;5.05;2.08;;;14.60;99.90;;;;;;4898967;29;20034;-77
2022/10/30 05:43:03;;;;;;;3.90;1.90;;;14.60;99.90;;;;;;4916122;29;20032;-76
2022/10/30 05:45:29;;;;;;;4.88;1.83;;;14.70;99.90;;;;;;4916007;29;20083;-77
2022/10/30 05:47:59;;;;;;;11.68;1.77;;;14.70;99.90;;;;;;4898905;29;20029;-77
2022/10/30 05:50:26;;;;;;;6.78;2.00;;;14.70;99.90;;;;;;4915848;29;20107;-76
2022/10/30 05:52:56;;;;;;;6.25;2.20;;;14.70;99.90;;;;;;4915772;29;20096;-76
2022/10/30 05:55:22;;;;;;;4.15;2.10;;;14.70;99.90;;;;;;4898954;29;20035;-77
2022/10/30 05:57:48;;;;;;;3.15;2.35;;;14.60;99.90;;;;;;4898593;29;20368;-76
2022/10/30 06:00:15;;;;;;;3.33;1.60;;;14.60;99.90;;;;;;4898515;29;20056;-76
2022/10/30 06:02:41;;;;;;;6.15;1.77;;;14.60;99.90;;;;;;4898506;29;20088;-77
2022/10/30 06:05:07;;;;;;;14.38;2.65;;;14.60;99.90;;;;;;4915516;29;20032;-77
2022/10/30 06:07:32;;;;;;;7.65;1.92;;;14.70;99.90;;;;;;4915635;29;20028;-77
2022/10/30 06:09:58;;;;;;;3.33;1.67;;;14.70;99.90;;;;;;4915607;29;20024;-77
2022/10/30 06:12:24;;;;;;;5.88;2.20;;;14.70;99.90;;;;;;4915505;29;20066;-76
2022/10/30 06:14:49;;;;;;;3.42;2.08;;;14.70;99.90;;;;;;4898441;29;20039;-77
2022/10/30 06:17:15;;;;;;;6.68;2.08;;;14.70;99.90;;;;;;4898531;29;20055;-77
2022/10/30 06:19:41;;;;;;;8.35;2.35;;;14.80;99.90;;;;;;4895527;29;20483;-77
2022/10/30 06:22:06;;;;;;;7.47;2.00;;;14.80;99.90;;;;;;4895773;29;20092;-77
2022/10/30 06:24:32;;;;;;;3.97;1.40;;;14.80;99.90;;;;;;4879475;29;20028;-77
2022/10/30 06:26:58;;;;;;;3.88;1.80;;;14.80;99.90;;;;;;4896311;29;20024;-76
2022/10/30 06:29:23;;;;;;;6.97;1.60;;;14.80;99.90;;;;;;4896550;29;20563;-76
2022/10/30 06:31:49;;;;;;;9.05;1.65;;;14.80;99.90;;;;;;4896195;29;20480;-77
2022/10/30 06:34:15;;;;;;;5.20;1.80;;;14.90;99.90;;;;;;4896448;29;20036;-77
2022/10/30 06:36:40;;;;;;;3.83;1.70;;;14.90;99.90;;;;;;4899005;29;20230;-76
2022/10/30 06:39:06;;;;;;;6.57;1.98;;;14.90;99.90;;;;;;4883322;29;20498;-77
2022/10/30 06:41:33;;;;;;;3.47;2.20;;;15.00;99.90;;;;;;4900249;29;20036;-77
2022/10/30 06:43:59;;;;;;;4.47;2.05;;;15.00;99.90;;;;;;4900181;29;20020;-77
2022/10/30 06:46:25;;;;;;;6.38;2.58;;;15.10;99.90;;;;;;4883333;29;20037;-77
2022/10/30 06:48:50;;;;;;;2.20;1.77;;;15.10;99.90;;;;;;4900188;29;20119;-76
2022/10/30 06:51:16;;;;;;;7.30;2.13;;;15.10;99.90;;;;;;4899941;29;20111;-77
2022/10/30 06:53:42;;;;;;;9.07;2.20;;;15.10;99.90;;;;;;4883262;29;20039;-77
2022/10/30 06:56:08;;;;;;;6.85;2.45;;;15.00;99.90;;;;;;4883013;29;20036;-77
2022/10/30 06:58:37;;;;;;;4.93;2.00;;;15.00;99.90;;;;;;4883028;29;20234;-77
2022/10/30 07:01:04;;;;;;;3.50;1.95;;;15.00;99.90;;;;;;4882924;29;20080;-77
2022/10/30 07:03:30;;;;;;;5.72;2.25;;;15.10;99.90;;;;;;4899936;29;20095;-77
2022/10/30 07:05:56;;;;;;;5.45;2.33;;;15.20;99.90;;;;;;4882985;29;20575;-77
2022/10/30 07:08:22;;;;;;;3.72;1.63;;;15.30;99.90;;;;;;4899900;29;20043;-77
2022/10/30 07:10:48;;;;;;;5.57;1.88;;;15.30;99.90;;;;;;4911830;29;20032;-77
2022/10/30 07:13:13;;;;;;;7.85;2.05;;;15.40;99.90;;;;;;4895038;29;20485;-77
2022/10/30 07:15:39;;;;;;;7.85;2.00;;;15.50;99.90;;;;;;4917458;29;20024;-77
2022/10/30 07:18:05;;;;;;;6.45;2.03;;;15.50;99.90;;;;;;4917505;29;20012;-77
2022/10/30 07:20:33;;;;;;;6.57;2.65;;;15.50;99.90;;;;;;4914074;29;20032;-77
2022/10/30 07:22:59;;;;;;;5.57;2.60;;;15.50;99.90;;;;;;4901270;29;20075;-77
2022/10/30 07:25:26;;;;;;;8.25;2.83;;;15.50;99.90;;;;;;4900979;29;20491;-77
2022/10/30 07:27:53;;;;;;;6.25;2.20;;;15.50;99.90;;;;;;4901285;29;20146;-77
2022/10/30 07:30:21;;;;;;;8.30;2.58;;;15.50;99.90;;;;;;4917707;29;20530;-77
2022/10/30 07:33:08;;;;;;;6.35;2.92;;;15.50;99.90;;;;;;4917730;29;20075;-77
2022/10/30 07:35:35;;;;;;;3.83;2.92;;;15.60;99.90;;;;;;4917361;29;20550;-77
2022/10/30 07:38:03;;;;;;;10.98;3.00;;;15.60;99.90;;;;;;4917667;29;20024;-77
2022/10/30 07:40:29;;;;;;;12.27;5.22;;;15.70;99.90;;;;;;4917544;29;20092;-77
2022/10/30 07:42:56;;;;;;;8.98;4.68;;;15.70;99.90;;;;;;4900433;29;20028;-77
2022/10/30 07:45:22;;;;;;;9.75;4.60;;;15.70;99.90;;;;;;4898469;29;20068;-77
2022/10/30 07:47:47;;;;;;;11.18;4.85;;;15.70;99.90;;;;;;4918069;29;20475;-77
2022/10/30 07:50:13;;;;;;;14.00;4.65;;;15.80;99.90;;;;;;4901002;29;20149;-77
2022/10/30 07:52:39;;;;;;;8.98;3.65;;;15.80;99.90;;;;;;4917900;29;20483;-77
2022/10/30 07:55:05;;;;;;;5.82;3.08;;;15.90;99.90;;;;;;4918009;29;20426;-77
2022/10/30 07:57:36;;;;;;;9.02;3.10;;;15.90;99.90;;;;;;4917848;29;20265;-77
2022/10/30 08:00:04;;;;;;;6.50;3.25;;;16.00;99.90;;;;;;4917750;29;20123;-77
2022/10/30 08:02:30;;;;;;;5.85;3.22;;;16.00;99.90;;;;;;4917619;29;20135;-77
2022/10/30 08:04:56;;;;;;;7.93;2.70;;;16.00;99.90;;;;;;4917864;29;20111;-77
2022/10/30 08:07:21;;;;;;;7.95;3.92;;;16.10;99.90;;;;;;4900474;29;20062;-77
2022/10/30 08:09:48;;;;;;;10.70;3.75;;;16.10;99.90;;;;;;4917736;29;20032;-77
2022/10/30 08:12:14;;;;;;;10.00;4.35;;;16.20;99.90;;;;;;4917661;29;20644;-77
2022/10/30 08:14:40;;;;;;;8.38;3.40;;;16.30;99.90;;;;;;4925192;29;20107;-77
2022/10/30 08:17:09;;;;;;;8.85;3.20;;;16.30;99.90;;;;;;4915365;29;20032;-77
2022/10/30 08:19:34;;;;;;;7.07;3.30;;;16.30;99.90;;;;;;4911210;29;20016;-77
2022/10/30 08:22:01;;;;;;;6.75;3.70;;;16.30;99.90;;;;;;4912269;29;20486;-78
2022/10/30 08:24:26;;;;;;;12.35;3.65;;;16.40;99.90;;;;;;4913020;29;20029;-77
2022/10/30 08:26:52;;;;;;;8.07;3.78;;;16.40;99.90;;;;;;4912496;29;20036;-77
2022/10/30 08:29:18;;;;;;;7.82;3.95;;;16.50;99.90;;;;;;4887319;29;20051;-77
2022/10/30 08:31:46;;;;;;;11.52;4.00;;;16.50;99.90;;;;;;4913018;29;20028;-77
2022/10/30 08:34:12;;;;;;;6.53;4.43;;;16.60;99.90;;;;;;4895117;29;20497;-77
2022/10/30 08:36:38;;;;;;;10.02;4.47;;;16.70;99.90;;;;;;4912801;29;20024;-77
2022/10/30 08:39:04;;;;;;;11.32;4.55;;;16.70;99.90;;;;;;4895429;29;20399;-77
2022/10/30 08:41:30;;;;;;;9.05;4.00;;;16.70;99.90;;;;;;4909345;29;20032;-79
2022/10/30 08:43:55;;;;;;;9.90;4.25;;;16.70;99.90;;;;;;4912764;29;20024;-79
2022/10/30 08:46:21;;;;;;;14.32;4.93;;;16.70;99.90;;;;;;4889921;29;20023;-79
2022/10/30 08:48:47;;;;;;;16.35;4.70;;;16.70;99.90;;;;;;4911440;29;20036;-79
2022/10/30 08:51:12;;;;;;;13.82;4.53;;;16.80;99.90;;;;;;4890131;29;20064;-80
2022/10/30 08:53:38;;;;;;;15.73;5.53;;;16.80;99.90;;;;;;4911897;29;20028;-78
2022/10/30 08:56:04;;;;;;;11.68;4.85;;;16.90;99.90;;;;;;4910700;29;20028;-78
2022/10/30 08:58:30;;;;;;;9.73;5.00;;;16.90;99.90;;;;;;4910539;29;20028;-77
2022/10/30 09:00:56;;;;;;;10.32;4.63;;;17.00;99.90;;;;;;4910609;29;20116;-78
2022/10/30 09:03:22;;;;;;;9.70;5.32;;;17.00;99.90;;;;;;4895769;29;20115;-77
2022/10/30 09:05:48;;;;;;;15.57;6.43;;;17.10;99.90;;;;;;4894987;29;20553;-79
2022/10/30 09:08:14;;;;;;;16.35;7.03;;;17.10;99.90;;;;;;4894934;29;20056;-77
2022/10/30 09:10:40;;;;;;;18.15;7.25;;;17.30;99.90;;;;;;4912626;29;20020;-78
2022/10/30 09:13:06;;;;;;;17.20;7.40;;;17.30;99.90;;;;;;4895570;29;20474;-78
2022/10/30 09:15:32;;;;;;;16.92;7.55;;;17.40;99.90;;;;;;4914780;29;20031;-80
2022/10/30 09:17:59;;;;;;;17.33;7.72;;;17.40;99.90;;;;;;4910483;29;20086;-79
2022/10/30 09:20:26;;;;;;;11.98;7.50;;;17.50;99.90;;;;;;4879980;29;20025;-79
2022/10/30 09:22:52;;;;;;;19.77;8.18;;;17.60;99.90;;;;;;4897217;29;20032;-77
2022/10/30 09:25:18;;;;;;;13.55;6.97;;;17.70;99.90;;;;;;4880307;29;20029;-78
2022/10/30 09:27:44;;;;;;;14.65;7.93;;;17.80;99.90;;;;;;4897008;29;20025;-77
2022/10/30 09:30:10;;;;;;;9.90;6.78;;;17.80;99.90;;;;;;4890461;29;20046;-78
2022/10/30 09:32:36;;;;;;;13.80;7.35;;;17.80;99.90;;;;;;4915803;29;20036;-78
2022/10/30 09:35:02;;;;;;;14.63;7.03;;;17.90;99.90;;;;;;4915617;29;20095;-77
2022/10/30 09:37:27;;;;;;;13.60;7.35;;;17.90;99.90;;;;;;4915846;29;20027;-78
2022/10/30 09:39:53;;;;;;;17.73;8.35;;;18.00;99.90;;;;;;4915841;29;20028;-78
2022/10/30 09:42:25;;;;;;;22.60;8.70;;;18.10;99.90;;;;;;4896466;29;20167;-80
2022/10/30 09:44:56;;;;;;;23.33;9.90;;;18.10;99.90;;;;;;4912417;29;20028;-80
2022/10/30 09:47:49;;;;;;;14.50;8.65;;;18.30;99.90;;;;;;4911794;29;20036;-76
2022/10/30 09:50:33;;;;;;;18.90;9.32;;;18.30;99.90;;;;;;4910820;29;20024;-76
2022/10/30 09:53:05;;;;;;;17.08;8.05;;;18.30;99.90;;;;;;4894597;29;20107;-77
2022/10/30 09:55:49;;;;;;;17.02;8.57;;;18.30;99.90;;;;;;4911226;29;20055;-77
2022/10/30 09:58:45;;;;;;;23.20;9.60;;;18.20;99.90;;;;;;4894025;29;20032;-77
2022/10/30 10:01:16;;;;;;;16.45;9.00;;;18.30;99.90;;;;;;4910960;29;20532;-76
2022/10/30 10:03:59;;;;;;;15.55;8.93;;;18.20;99.90;;;;;;4894463;29;20472;-76
2022/10/30 10:06:26;;;;;;;20.75;7.78;;;18.40;99.90;;;;;;4910722;29;20423;-76
2022/10/30 10:09:16;;;;;;;14.65;8.23;;;18.40;99.90;;;;;;4912446;29;20040;-80
2022/10/30 10:11:48;;;;;;;17.27;8.23;;;18.40;99.90;;;;;;4912195;29;20118;-80
2022/10/30 10:14:19;;;;;;;17.90;8.65;;;18.30;99.90;;;;;;4916140;29;20032;-81
2022/10/30 10:16:50;;;;;;;20.27;9.32;;;18.50;99.90;;;;;;4915499;29;20523;-80
2022/10/30 10:19:42;;;;;;;18.42;9.52;;;18.50;99.90;;;;;;4915601;29;20020;-80
2022/10/30 10:22:24;;;;;;;20.48;10.45;;;18.60;99.90;;;;;;4907591;29;20611;-80
2022/10/30 10:24:52;;;;;;;30.27;9.43;;;18.70;99.90;;;;;;4891101;29;20399;-81
2022/10/30 10:28:16;;;;;;;21.13;9.20;;;18.80;99.90;;;;;;4915512;29;20021;-80
2022/10/30 10:30:49;;;;;;;20.48;10.10;;;18.80;99.90;;;;;;4896906;29;20051;-80
2022/10/30 10:33:15;;;;;;;19.58;9.70;;;18.80;99.90;;;;;;4915165;29;20028;-80
2022/10/30 10:36:01;;;;;;;23.08;8.77;;;18.90;99.90;;;;;;4912167;29;20035;-81
2022/10/30 10:38:50;;;;;;;24.42;9.15;;;19.00;99.90;;;;;;4895646;29;20036;-80
2022/10/30 10:41:34;;;;;;;21.27;9.52;;;19.00;99.90;;;;;;4915153;29;20072;-81
2022/10/30 10:44:26;;;;;;;21.77;10.05;;;19.00;99.90;;;;;;4915013;29;20551;-81
2022/10/30 10:47:18;;;;;;;27.85;11.20;;;19.10;99.90;;;;;;4915341;29;20059;-80
2022/10/30 10:50:13;;;;;;;24.05;11.23;;;19.20;99.90;;;;;;4912598;29;20065;-81
2022/10/30 10:53:02;;;;;;;22.17;11.25;;;19.10;99.90;;;;;;4911503;29;20035;-80
2022/10/30 10:55:32;;;;;;;21.40;11.10;;;19.20;99.90;;;;;;4911582;29;20044;-80
2022/10/30 10:58:15;;;;;;;21.63;9.95;;;19.30;99.90;;;;;;4913472;29;20020;-81
2022/10/30 11:00:42;;;;;;;18.63;10.43;;;19.30;99.90;;;;;;4913723;29;20371;-80
2022/10/30 11:03:16;;;;;;;19.10;9.30;;;19.50;99.90;;;;;;4913570;29;20040;-81
2022/10/30 11:06:10;;;;;;;18.92;8.90;;;19.50;99.90;;;;;;4913822;29;20052;-80
2022/10/30 11:08:36;;;;;;;21.88;9.73;;;19.60;99.90;;;;;;4914834;29;20028;-80
2022/10/30 11:11:06;;;;;;;19.23;9.50;;;19.60;99.90;;;;;;4915211;29;20043;-80
2022/10/30 11:13:40;;;;;;;20.75;10.07;;;19.70;99.90;;;;;;4912351;29;20055;-80
2022/10/30 11:16:27;;;;;;;23.48;9.63;;;19.70;99.90;;;;;;4910318;29;20024;-80
2022/10/30 11:19:00;;;;;;;23.83;9.68;;;19.70;99.90;;;;;;4897843;29;20052;-80
2022/10/30 11:21:28;;;;;;;21.10;8.68;;;19.80;99.90;;;;;;4915359;29;20390;-80
2022/10/30 11:23:54;;;;;;;18.95;9.32;;;19.80;99.90;;;;;;4918352;29;20111;-80
2022/10/30 11:26:19;;;;;;;19.08;9.68;;;19.70;99.90;;;;;;4918586;29;20127;-80
2022/10/30 11:29:02;;;;;;;17.75;9.27;;;19.80;99.90;;;;;;4901474;29;20446;-80
2022/10/30 11:31:39;;;;;;;17.25;8.98;;;19.80;99.90;;;;;;4918343;29;20024;-80
2022/10/30 11:34:22;;;;;;;20.33;9.48;;;19.80;99.90;;;;;;4901475;29;20032;-80
2022/10/30 11:36:49;;;;;;;22.42;8.80;;;20.00;99.90;;;;;;4917752;29;20071;-80
2022/10/30 11:39:21;;;;;;;20.45;10.38;;;20.00;99.90;;;;;;4917797;29;20032;-80
2022/10/30 11:42:13;;;;;;;18.65;8.75;;;20.00;99.90;;;;;;4900862;29;20051;-80
2022/10/30 11:44:48;;;;;;;20.13;8.73;;;20.10;99.90;;;;;;4916581;29;20032;-80
2022/10/30 11:47:20;;;;;;;16.83;9.60;;;20.10;99.90;;;;;;4916647;29;20028;-80
2022/10/30 11:49:58;;;;;;;20.08;8.23;;;20.10;99.90;;;;;;4917753;29;20093;-80
2022/10/30 11:52:25;;;;;;;22.33;8.93;;;20.20;99.90;;;;;;4917278;29;20088;-80
2022/10/30 11:55:19;;;;;;;18.23;9.05;;;20.20;99.90;;;;;;4917635;29;20119;-80
2022/10/30 11:57:49;;;;;;;20.58;8.50;;;20.20;99.90;;;;;;4906641;29;20040;-80
2022/10/30 12:00:22;;;;;;;20.83;9.75;;;20.40;99.90;;;;;;4917968;29;20029;-80
2022/10/30 12:02:50;;;;;;;19.55;8.48;;;20.50;99.90;;;;;;4916733;29;20483;-80
2022/10/30 12:05:28;;;;;;;11.93;7.05;;;20.50;99.90;;;;;;4916487;29;20100;-80
2022/10/30 12:08:07;;;;;;;19.42;7.57;;;20.50;99.90;;;;;;4916431;29;20032;-80
2022/10/30 12:10:41;;;;;;;16.55;7.78;;;20.50;99.90;;;;;;4916362;29;20031;-81
2022/10/30 12:13:16;;;;;;;12.15;7.50;;;20.40;99.90;;;;;;4916255;29;20028;-80
2022/10/30 12:15:44;;;;;;;16.38;7.60;;;20.30;99.90;;;;;;4916413;29;20036;-80
2022/10/30 12:18:29;;;;;;;16.58;7.70;;;20.40;99.90;;;;;;4917545;29;20103;-80
2022/10/30 12:20:56;;;;;;;13.60;7.80;;;20.30;99.90;;;;;;4917641;29;20136;-80
2022/10/30 12:23:26;;;;;;;17.58;7.78;;;20.40;99.90;;;;;;4917409;29;20036;-80
2022/10/30 12:25:58;;;;;;;16.63;8.98;;;20.40;99.90;;;;;;4900595;29;20016;-80
2022/10/30 12:28:28;;;;;;;17.48;7.75;;;20.40;99.90;;;;;;4917604;29;20034;-80
2022/10/30 12:30:59;;;;;;;16.60;8.73;;;20.60;99.90;;;;;;4917334;29;20052;-80
2022/10/30 12:33:34;;;;;;;16.45;9.20;;;20.60;99.90;;;;;;4916482;29;20028;-80
2022/10/30 12:36:04;;;;;;;24.55;8.77;;;20.50;99.90;;;;;;4917293;29;20032;-80
2022/10/30 12:38:33;;;;;;;17.77;8.95;;;20.50;99.90;;;;;;4900405;29;20027;-80
2022/10/30 12:41:11;;;;;;;21.90;8.13;;;20.50;99.90;;;;;;4917215;29;20108;-80
2022/10/30 12:43:40;;;;;;;21.17;8.23;;;20.40;99.90;;;;;;4900211;29;20031;-80
2022/10/30 12:46:32;;;;;;;19.02;7.93;;;20.40;99.90;;;;;;4917190;29;20558;-80
2022/10/30 12:49:36;;;;;;;16.08;6.72;;;20.50;99.90;;;;;;4917089;29;20479;-80
2022/10/30 12:52:09;;;;;;;15.98;7.43;;;20.50;99.90;;;;;;4897018;29;20040;-80
2022/10/30 12:55:01;;;;;;;18.45;7.53;;;20.50;99.90;;;;;;4916767;29;20029;-80
2022/10/30 12:57:37;;;;;;;19.08;7.18;;;20.40;99.90;;;;;;4916725;29;20021;-80
2022/10/30 13:00:09;;;;;;;19.77;8.10;;;20.40;99.90;;;;;;4916851;29;20608;-80